createdAt,value
2024-04-11T00:00:25.188Z,52.23
2024-04-11T00:02:53.378Z,52.94
2024-04-11T00:05:21.542Z,52.17
2024-04-11T00:07:48.383Z,51.71
2024-04-11T00:10:15.240Z,52.72
2024-04-11T00:12:42.097Z,52.49
2024-04-11T00:15:09.349Z,52.48
2024-04-11T00:17:36.299Z,52.43
2024-04-11T00:20:05.079Z,52.58
2024-04-11T00:22:32.246Z,52.92
2024-04-11T00:24:59.165Z,53.37
2024-04-11T00:27:26.237Z,53.00
2024-04-11T00:29:53.139Z,53.52
2024-04-11T00:32:20.076Z,53.51
2024-04-11T00:34:47.050Z,54.10
2024-04-11T00:37:14.203Z,53.49
2024-04-11T00:39:40.886Z,53.99
2024-04-11T00:42:08.667Z,53.04
2024-04-11T00:44:38.686Z,53.42
2024-04-11T00:47:10.708Z,52.96
2024-04-11T00:49:39.536Z,53.59
2024-04-11T00:52:08.424Z,53.74
2024-04-11T00:54:36.972Z,53.56
2024-04-11T00:57:08.908Z,54.24
2024-04-11T00:59:41.939Z,54.38
2024-04-11T01:02:13.418Z,53.36
2024-04-11T01:04:40.693Z,53.09
2024-04-11T01:07:09.624Z,52.89
2024-04-11T01:09:46.042Z,52.38
2024-04-11T01:12:14.870Z,51.64
2024-04-11T01:14:45.461Z,52.49
2024-04-11T01:17:17.367Z,52.83
2024-04-11T01:19:51.225Z,53.17
2024-04-11T01:22:19.982Z,51.79
2024-04-11T01:24:48.164Z,51.52
2024-04-11T01:27:18.416Z,51.97
2024-04-11T01:29:45.433Z,51.81
2024-04-11T01:32:12.371Z,51.75
2024-04-11T01:34:40.068Z,52.52
2024-04-11T01:37:07.183Z,52.09
2024-04-11T01:39:33.964Z,52.84
2024-04-11T01:42:00.989Z,52.76
2024-04-11T01:44:29.840Z,53.77
2024-04-11T01:46:57.171Z,53.82
2024-04-11T01:49:23.943Z,53.61
2024-04-11T01:51:50.792Z,53.34
2024-04-11T01:54:17.686Z,53.24
2024-04-11T01:56:44.427Z,53.59
2024-04-11T01:59:11.196Z,53.54
2024-04-11T02:01:39.091Z,53.96
2024-04-11T02:04:07.447Z,53.58
2024-04-11T02:06:38.414Z,51.97
2024-04-11T02:09:16.948Z,51.98
2024-04-11T02:11:48.609Z,52.60
2024-04-11T02:14:15.806Z,51.90
2024-04-11T02:16:42.568Z,51.33
2024-04-11T02:19:09.489Z,51.73
2024-04-11T02:21:39.413Z,50.74
2024-04-11T02:24:08.067Z,50.74
2024-04-11T02:26:36.109Z,51.47
2024-04-11T02:29:03.851Z,51.17
2024-04-11T02:31:30.732Z,50.53
2024-04-11T02:34:00.768Z,50.84
2024-04-11T02:36:34.138Z,51.35
2024-04-11T02:39:01.663Z,51.46
2024-04-11T02:41:29.325Z,50.81
2024-04-11T02:43:56.642Z,51.47
2024-04-11T02:46:26.393Z,51.15
2024-04-11T02:48:54.853Z,51.15
2024-04-11T02:51:24.290Z,51.15
2024-04-11T02:53:51.361Z,50.59
2024-04-11T02:56:18.353Z,51.17
2024-04-11T02:58:45.137Z,51.01
2024-04-11T03:01:15.449Z,51.26
2024-04-11T03:03:42.787Z,50.28
2024-04-11T03:06:11.379Z,50.19
2024-04-11T03:08:38.258Z,49.98
2024-04-11T03:11:05.052Z,50.09
2024-04-11T03:13:31.791Z,49.74
2024-04-11T03:15:59.393Z,49.50
2024-04-11T03:18:26.347Z,49.23
2024-04-11T03:20:57.857Z,48.88
2024-04-11T03:23:25.913Z,49.99
2024-04-11T03:25:53.095Z,48.91
2024-04-11T03:28:20.999Z,49.42
2024-04-11T03:30:58.866Z,50.52
2024-04-11T03:33:27.528Z,51.15
2024-04-11T03:35:59.452Z,50.95
2024-04-11T03:38:26.993Z,50.55
2024-04-11T03:41:09.148Z,52.58
2024-04-11T03:43:36.202Z,51.63
2024-04-11T03:46:22.719Z,50.85
2024-04-11T03:48:57.506Z,50.31
2024-04-11T03:51:31.023Z,51.18
2024-04-11T03:54:00.136Z,50.49
2024-04-11T03:56:29.238Z,50.75
2024-04-11T03:59:00.056Z,50.31
2024-04-11T04:01:28.742Z,49.87
2024-04-11T04:04:06.136Z,50.73
2024-04-11T04:06:35.424Z,51.01
2024-04-11T04:09:09.094Z,51.93
2024-04-11T04:11:39.504Z,50.81
2024-04-11T04:14:15.025Z,51.49
2024-04-11T04:16:43.599Z,51.10
2024-04-11T04:19:11.013Z,50.71
2024-04-11T04:21:37.825Z,50.97
2024-04-11T04:24:07.834Z,50.68
2024-04-11T04:26:35.531Z,50.78
2024-04-11T04:29:02.324Z,50.77
2024-04-11T04:31:32.150Z,50.41
2024-04-11T04:34:01.463Z,50.36
2024-04-11T04:36:34.385Z,49.50
2024-04-11T04:39:06.052Z,50.30
2024-04-11T04:41:33.932Z,51.24
2024-04-11T04:44:03.554Z,51.15
2024-04-11T04:46:31.981Z,50.70
2024-04-11T04:49:01.683Z,50.71
2024-04-11T04:51:30.150Z,51.20
2024-04-11T04:53:58.391Z,50.46
2024-04-11T04:56:30.061Z,51.14
2024-04-11T04:58:57.468Z,50.93
2024-04-11T05:01:25.306Z,50.32
2024-04-11T05:03:52.765Z,51.66
2024-04-11T05:06:19.994Z,50.97
2024-04-11T05:08:54.742Z,51.38
2024-04-11T05:11:23.635Z,51.93
2024-04-11T05:13:51.846Z,52.35
2024-04-11T05:16:22.533Z,51.19
2024-04-11T05:18:51.629Z,51.54
2024-04-11T05:21:25.736Z,51.02
2024-04-11T05:23:55.432Z,51.39
2024-04-11T05:26:26.398Z,50.36
2024-04-11T05:28:55.399Z,49.59
2024-04-11T05:31:29.136Z,49.64
2024-04-11T05:34:01.244Z,51.21
2024-04-11T05:36:30.396Z,50.91
2024-04-11T05:38:58.671Z,50.80
2024-04-11T05:41:26.965Z,51.40
2024-04-11T05:43:55.938Z,50.77
2024-04-11T05:46:23.889Z,51.30
2024-04-11T05:48:52.139Z,50.87
2024-04-11T05:51:20.229Z,50.66
2024-04-11T05:53:47.415Z,50.22
2024-04-11T05:56:16.906Z,49.74
2024-04-11T05:58:44.570Z,50.62
2024-04-11T06:01:17.324Z,50.00
2024-04-11T06:03:51.710Z,50.81
2024-04-11T06:06:21.257Z,50.08
2024-04-11T06:08:49.224Z,49.39
2024-04-11T06:11:19.487Z,49.32
2024-04-11T06:13:48.486Z,48.94
2024-04-11T06:16:16.377Z,49.37
2024-04-11T06:18:45.357Z,50.08
2024-04-11T06:21:19.911Z,49.99
2024-04-11T06:23:46.983Z,49.65
2024-04-11T06:26:15.918Z,48.76
2024-04-11T06:28:46.523Z,49.16
2024-04-11T06:31:16.089Z,49.46
2024-04-11T06:33:43.293Z,49.25
2024-04-11T06:36:12.371Z,49.27
2024-04-11T06:38:39.697Z,49.11
2024-04-11T06:41:09.787Z,48.36
2024-04-11T06:43:39.538Z,47.72
2024-04-11T06:46:08.232Z,48.58
2024-04-11T06:48:36.742Z,48.77
2024-04-11T06:51:08.637Z,49.20
2024-04-11T06:53:35.766Z,48.34
2024-04-11T06:56:09.020Z,48.74
2024-04-11T06:58:37.795Z,47.85
2024-04-11T07:01:05.916Z,47.29
2024-04-11T07:03:33.088Z,47.31
2024-04-11T07:06:11.599Z,48.14
2024-04-11T07:08:44.416Z,47.86
2024-04-11T07:11:20.610Z,47.25
2024-04-11T07:13:56.026Z,47.70
2024-04-11T07:16:27.641Z,47.71
2024-04-11T07:18:57.390Z,47.64
2024-04-11T07:21:29.411Z,47.81
2024-04-11T07:23:59.457Z,47.68
2024-04-11T07:26:31.646Z,48.25
2024-04-11T07:29:05.102Z,48.59
2024-04-11T07:31:34.518Z,48.28
2024-04-11T07:34:04.741Z,48.93
2024-04-11T07:36:34.111Z,48.34
2024-04-11T07:39:02.401Z,49.34
2024-04-11T07:41:34.280Z,48.85
2024-04-11T07:44:01.831Z,49.32
2024-04-11T07:46:42.885Z,49.10
2024-04-11T07:49:14.869Z,49.12
2024-04-11T07:51:43.189Z,50.14
2024-04-11T07:54:20.573Z,49.64
2024-04-11T07:56:52.539Z,50.01
2024-04-11T07:59:19.226Z,50.89
2024-04-11T08:01:46.011Z,50.77
2024-04-11T08:04:12.828Z,51.07
2024-04-11T08:06:40.483Z,51.44
2024-04-11T08:09:08.207Z,50.76
2024-04-11T08:11:38.202Z,51.29
2024-04-11T08:14:07.569Z,51.86
2024-04-11T08:16:34.889Z,52.04
2024-04-11T08:19:03.938Z,52.99
2024-04-11T08:21:34.615Z,53.03
2024-04-11T08:24:01.974Z,53.37
2024-04-11T08:26:30.549Z,53.26
2024-04-11T08:28:57.393Z,53.80
2024-04-11T08:31:31.622Z,53.46
2024-04-11T08:33:59.634Z,55.26
2024-04-11T08:36:27.794Z,55.57
2024-04-11T08:38:56.670Z,55.78
2024-04-11T08:41:23.480Z,55.02
2024-04-11T08:43:51.947Z,54.69
2024-04-11T08:46:18.805Z,55.78
2024-04-11T08:48:45.888Z,55.20
2024-04-11T08:51:21.133Z,55.96
2024-04-11T08:54:00.201Z,56.96
2024-04-11T08:56:30.748Z,56.32
2024-04-11T08:58:57.582Z,57.57
2024-04-11T09:01:25.028Z,56.84
2024-04-11T09:03:53.981Z,57.04
2024-04-11T09:06:25.734Z,57.19
2024-04-11T09:08:56.942Z,57.04
2024-04-11T09:11:28.153Z,56.62
2024-04-11T09:13:59.577Z,57.30
2024-04-11T09:16:29.809Z,56.87
2024-04-11T09:19:12.724Z,57.07
2024-04-11T09:21:47.146Z,57.28
2024-04-11T09:24:20.317Z,56.58
2024-04-11T09:26:48.538Z,57.72
2024-04-11T09:29:21.259Z,58.56
2024-04-11T09:31:50.639Z,57.78
2024-04-11T09:34:22.117Z,57.23
2024-04-11T09:36:51.410Z,55.96
2024-04-11T09:39:44.809Z,56.39
2024-04-11T09:42:21.745Z,57.48
2024-04-11T09:44:54.652Z,57.38
2024-04-11T09:47:36.174Z,57.95
2024-04-11T09:50:07.457Z,57.90
2024-04-11T09:52:42.781Z,57.77
2024-04-11T09:55:10.443Z,57.02
2024-04-11T09:57:39.867Z,56.52
2024-04-11T10:00:23.916Z,57.42
2024-04-11T10:02:56.504Z,57.85
2024-04-11T10:05:26.814Z,57.71
2024-04-11T10:07:59.304Z,58.46
2024-04-11T10:10:29.113Z,58.12
2024-04-11T10:13:04.802Z,58.53
2024-04-11T10:15:35.437Z,58.56
2024-04-11T10:18:10.994Z,58.10
2024-04-11T10:21:00.609Z,59.38
2024-04-11T10:23:30.359Z,58.75
2024-04-11T10:25:57.582Z,58.27
2024-04-11T10:28:39.809Z,57.95
2024-04-11T10:31:12.748Z,57.92
2024-04-11T10:33:54.806Z,58.02
2024-04-11T10:36:22.908Z,58.05
2024-04-11T10:38:59.253Z,58.40
2024-04-11T10:41:27.796Z,57.46
2024-04-11T10:43:56.952Z,56.89
2024-04-11T10:46:25.342Z,57.64
2024-04-11T10:48:56.364Z,57.74
2024-04-11T10:51:29.145Z,58.51
2024-04-11T10:54:10.763Z,58.28
2024-04-11T10:56:47.899Z,57.78
2024-04-11T10:59:24.223Z,57.37
2024-04-11T11:02:06.208Z,57.23
2024-04-11T11:04:35.095Z,57.66
2024-04-11T11:07:12.021Z,57.29
2024-04-11T11:09:46.798Z,57.20
2024-04-11T11:12:17.778Z,56.33
2024-04-11T11:14:44.933Z,55.44
2024-04-11T11:17:19.358Z,55.48
2024-04-11T11:19:51.556Z,54.72
2024-04-11T11:22:31.322Z,54.26
2024-04-11T11:25:02.238Z,54.57
2024-04-11T11:27:34.841Z,54.63
2024-04-11T11:30:07.284Z,54.42
2024-04-11T11:32:37.522Z,53.89
2024-04-11T11:35:10.596Z,52.88
2024-04-11T11:37:40.110Z,54.50
2024-04-11T11:40:27.339Z,54.56
2024-04-11T11:42:54.244Z,54.49
2024-04-11T11:45:30.204Z,54.00
2024-04-11T11:48:14.238Z,54.55
2024-04-11T11:50:41.537Z,54.44
2024-04-11T11:53:27.017Z,54.09
2024-04-11T11:56:04.699Z,54.59
2024-04-11T11:58:37.658Z,53.67
2024-04-11T12:01:20.976Z,54.86
2024-04-11T12:03:49.186Z,54.31
2024-04-11T12:06:16.105Z,52.43
2024-04-11T12:08:44.899Z,52.03
2024-04-11T12:11:11.917Z,51.96
2024-04-11T12:13:46.493Z,52.51
2024-04-11T12:16:19.440Z,51.86
2024-04-11T12:18:49.794Z,50.83
2024-04-11T12:21:27.605Z,51.34
2024-04-11T12:23:56.386Z,51.11
2024-04-11T12:26:23.451Z,51.96
2024-04-11T12:28:52.485Z,51.63
2024-04-11T12:31:23.353Z,51.63
2024-04-11T12:39:14.085Z,52.06
2024-04-11T12:41:42.126Z,52.17
2024-04-11T12:44:12.814Z,52.13
2024-04-11T12:46:50.422Z,51.63
2024-04-11T12:49:21.596Z,51.87
2024-04-11T12:51:48.322Z,51.30
2024-04-11T12:54:17.251Z,52.10
2024-04-11T12:56:46.577Z,51.79
2024-04-11T12:59:29.412Z,51.34
2024-04-11T13:02:00.444Z,52.03
2024-04-11T13:04:33.731Z,52.70
2024-04-11T13:07:11.717Z,53.28
2024-04-11T13:09:56.556Z,52.92
2024-04-11T13:12:28.147Z,51.78
2024-04-11T13:15:11.348Z,52.16
2024-04-11T13:17:44.686Z,53.19
2024-04-11T13:20:15.068Z,53.39
2024-04-11T13:22:46.025Z,53.35
2024-04-11T13:25:22.678Z,53.29
2024-04-11T13:27:54.952Z,52.58
2024-04-11T13:30:22.455Z,52.17
2024-04-11T13:32:57.562Z,52.11
2024-04-11T13:35:38.324Z,52.06
2024-04-11T13:38:13.988Z,52.24
2024-04-11T13:41:12.814Z,52.53
2024-04-11T13:43:44.979Z,52.43
2024-04-11T13:46:13.033Z,52.66
2024-04-11T13:48:51.868Z,53.85
2024-04-11T13:51:31.807Z,52.51
2024-04-11T13:54:04.540Z,52.83
2024-04-11T13:56:31.924Z,53.28
2024-04-11T13:59:09.311Z,53.94
2024-04-11T14:01:51.918Z,53.86
2024-04-11T14:04:19.650Z,53.25
2024-04-11T14:06:52.342Z,52.44
2024-04-11T14:09:20.740Z,53.61
2024-04-11T14:11:48.954Z,53.56
2024-04-11T14:14:22.298Z,54.24
2024-04-11T14:16:53.718Z,53.57
2024-04-11T14:19:36.989Z,53.53
2024-04-11T14:22:23.276Z,53.67
2024-04-11T14:25:09.193Z,54.19
2024-04-11T14:27:39.694Z,53.92
2024-04-11T14:30:07.313Z,54.15
2024-04-11T14:32:52.711Z,53.58
2024-04-11T14:35:26.957Z,54.80
2024-04-11T14:37:57.475Z,54.77
2024-04-11T14:40:24.404Z,54.85
2024-04-11T14:42:54.525Z,55.50
2024-04-11T14:45:23.973Z,54.21
2024-04-11T14:47:52.626Z,54.06
2024-04-11T14:50:20.538Z,54.11
2024-04-11T14:52:53.167Z,55.51
2024-04-11T14:55:22.129Z,55.22
2024-04-11T14:57:49.612Z,55.14
2024-04-11T15:00:35.229Z,55.83
2024-04-11T15:03:02.506Z,56.02
2024-04-11T15:05:35.381Z,57.15
2024-04-11T15:08:05.052Z,57.80
2024-04-11T15:10:43.283Z,58.25
2024-04-11T15:13:10.950Z,57.24
2024-04-11T15:15:57.651Z,57.03
2024-04-11T15:18:29.150Z,57.67
2024-04-11T15:21:12.269Z,56.60
2024-04-11T15:23:44.073Z,56.43
2024-04-11T15:26:15.070Z,56.17
2024-04-11T15:28:48.876Z,54.93
2024-04-11T15:31:31.245Z,56.37
2024-04-11T15:33:59.178Z,55.19
2024-04-11T15:36:45.088Z,55.92
2024-04-11T15:39:17.560Z,55.51
2024-04-11T15:41:52.203Z,54.47
2024-04-11T15:44:19.541Z,54.80
2024-04-11T15:46:50.840Z,56.81
2024-04-11T15:49:19.909Z,57.56
2024-04-11T15:51:52.444Z,57.77
2024-04-11T15:54:31.618Z,58.08
2024-04-11T15:56:58.447Z,57.60
2024-04-11T15:59:28.531Z,57.81
2024-04-11T16:01:59.034Z,56.78
2024-04-11T16:04:25.952Z,57.65
2024-04-11T16:06:59.816Z,58.24
2024-04-11T16:09:38.446Z,58.37
2024-04-11T16:12:11.180Z,58.29
2024-04-11T16:14:44.429Z,57.83
2024-04-11T16:17:14.667Z,57.88
2024-04-11T16:19:42.473Z,57.92
2024-04-11T16:22:12.617Z,57.30
2024-04-11T16:24:53.711Z,56.85
2024-04-11T16:27:35.428Z,55.96
2024-04-11T16:30:12.329Z,56.23
2024-04-11T16:32:42.647Z,57.68
2024-04-11T16:35:09.943Z,57.66
2024-04-11T16:37:37.047Z,57.39
2024-04-11T16:40:05.228Z,57.08
2024-04-11T16:42:35.632Z,57.17
2024-04-11T16:45:06.607Z,56.88
2024-04-11T16:47:37.604Z,57.03
2024-04-11T16:50:05.492Z,57.09
2024-04-11T16:52:33.206Z,56.00
2024-04-11T16:55:24.423Z,57.11
2024-04-11T16:57:52.731Z,56.95
2024-04-11T17:00:28.626Z,56.58
2024-04-11T17:03:01.341Z,57.60
2024-04-11T17:05:29.738Z,56.95
2024-04-11T17:07:57.403Z,57.57
2024-04-11T17:10:34.849Z,56.86
2024-04-11T17:13:02.377Z,55.59
2024-04-11T17:15:31.634Z,56.55
2024-04-11T17:18:07.304Z,57.17
2024-04-11T17:20:35.185Z,58.87
2024-04-11T17:23:01.864Z,59.12
2024-04-11T17:25:40.400Z,59.43
2024-04-11T17:28:20.975Z,59.69
2024-04-11T17:30:57.290Z,59.95
2024-04-11T17:33:36.920Z,59.46
2024-04-11T17:36:25.110Z,58.94
2024-04-11T17:39:23.370Z,58.66
2024-04-11T17:41:59.886Z,58.48
2024-04-11T17:44:45.994Z,59.66
2024-04-11T17:47:21.993Z,60.32
2024-04-11T17:50:00.040Z,59.19
2024-04-11T17:52:46.069Z,60.25
2024-04-11T17:55:25.840Z,59.28
2024-04-11T17:57:53.157Z,59.33
2024-04-11T18:00:27.200Z,60.82
2024-04-11T18:02:55.051Z,59.31
2024-04-11T18:05:22.836Z,59.28
2024-04-11T18:07:53.463Z,60.04
2024-04-11T18:10:26.250Z,59.89
2024-04-11T18:12:54.492Z,60.20
2024-04-11T18:15:21.322Z,62.46
2024-04-11T18:17:55.421Z,61.97
2024-04-11T18:20:28.453Z,61.50
2024-04-11T18:22:55.243Z,61.19
2024-04-11T18:25:30.367Z,61.35
2024-04-11T18:28:12.787Z,62.49
2024-04-11T18:30:55.833Z,62.10
2024-04-11T18:33:24.421Z,62.85
2024-04-11T18:35:55.881Z,63.19
2024-04-11T18:38:28.762Z,62.07
2024-04-11T18:40:55.971Z,62.42
2024-04-11T18:43:23.940Z,61.64
2024-04-11T18:45:55.938Z,61.57
2024-04-11T18:48:39.222Z,61.60
2024-04-11T18:51:07.047Z,62.08
2024-04-11T18:53:36.543Z,61.76
2024-04-11T18:56:10.496Z,61.60
2024-04-11T18:58:40.726Z,60.89
2024-04-11T19:01:16.564Z,61.38
2024-04-11T19:03:43.647Z,62.27
2024-04-11T19:06:17.886Z,61.13
2024-04-11T19:08:49.437Z,61.91
2024-04-11T19:11:21.668Z,61.62
2024-04-11T19:13:56.202Z,60.95
2024-04-11T19:16:25.800Z,61.18
2024-04-11T19:18:57.907Z,60.31
2024-04-11T19:21:25.152Z,59.95
2024-04-11T19:24:07.742Z,59.67
2024-04-11T19:26:39.500Z,59.48
2024-04-11T19:29:08.960Z,60.30
2024-04-11T19:31:50.195Z,60.05
2024-04-11T19:34:21.280Z,59.37
2024-04-11T19:36:49.548Z,59.63
2024-04-11T19:39:20.610Z,59.77
2024-04-11T19:41:50.648Z,60.45
2024-04-11T19:44:19.103Z,60.54
2024-04-11T19:46:45.892Z,60.36
2024-04-11T19:49:25.496Z,60.48
2024-04-11T19:51:58.855Z,60.33
2024-04-11T19:54:26.656Z,60.42
2024-04-11T19:57:03.527Z,61.59
2024-04-11T19:59:33.589Z,60.63
2024-04-11T20:02:09.580Z,60.37
2024-04-11T20:04:43.078Z,59.93
2024-04-11T20:07:10.722Z,59.74
2024-04-11T20:09:39.461Z,60.22
2024-04-11T20:12:09.059Z,60.23
2024-04-11T20:14:39.853Z,59.72
2024-04-11T20:17:27.736Z,60.70
2024-04-11T20:20:00.595Z,60.41
2024-04-11T20:22:33.491Z,59.80
2024-04-11T20:25:00.406Z,59.53
2024-04-11T20:27:35.741Z,60.34
2024-04-11T20:30:15.625Z,59.95
2024-04-11T20:32:45.579Z,59.80
2024-04-11T20:35:42.440Z,59.19
2024-04-11T20:38:22.375Z,58.79
2024-04-11T20:41:04.658Z,59.78
2024-04-11T20:43:58.665Z,59.74
2024-04-11T20:46:31.232Z,60.54
2024-04-11T20:49:07.302Z,61.48
2024-04-11T20:51:52.855Z,62.18
2024-04-11T20:54:38.664Z,62.03
2024-04-11T20:57:24.070Z,61.79
2024-04-11T21:00:09.522Z,60.58
2024-04-11T21:02:55.076Z,60.99
2024-04-11T21:05:41.990Z,61.17
2024-04-11T21:08:28.066Z,61.08
2024-04-11T21:11:15.070Z,61.14
2024-04-11T21:14:00.243Z,62.23
2024-04-11T21:16:46.106Z,62.72
2024-04-11T21:19:31.599Z,62.81
2024-04-11T21:22:17.055Z,62.26
2024-04-11T21:25:07.098Z,62.52
2024-04-11T21:27:52.084Z,61.50
2024-04-11T21:30:37.556Z,62.72
2024-04-11T21:33:23.705Z,61.23
2024-04-11T21:35:54.666Z,62.24
2024-04-11T21:38:24.409Z,61.95
2024-04-11T21:40:51.220Z,62.04
2024-04-11T21:43:21.893Z,61.37
2024-04-11T21:45:58.951Z,60.91
2024-04-11T21:48:30.390Z,61.31
2024-04-11T21:50:57.194Z,62.25
2024-04-11T21:53:23.920Z,61.92
2024-04-11T21:55:50.962Z,61.59
2024-04-11T21:58:20.166Z,61.99
2024-04-11T22:01:02.695Z,60.92
2024-04-11T22:03:30.687Z,62.43
2024-04-11T22:05:57.715Z,62.94
2024-04-11T22:08:26.297Z,61.46
2024-04-11T22:10:54.390Z,61.34
2024-04-11T22:13:23.230Z,61.29
2024-04-11T22:15:54.106Z,61.25
2024-04-11T22:18:31.865Z,60.97
2024-04-11T22:21:16.061Z,60.05
2024-04-11T22:23:46.555Z,60.03
2024-04-11T22:26:19.269Z,60.40
2024-04-11T22:28:49.642Z,60.08
2024-04-11T22:31:16.530Z,60.43
2024-04-11T22:33:44.962Z,60.14
2024-04-11T22:36:29.146Z,59.73
2024-04-11T22:39:01.883Z,59.52
2024-04-11T22:41:31.792Z,59.48
2024-04-11T22:43:59.763Z,59.07
2024-04-11T22:46:38.333Z,59.04
2024-04-11T22:49:22.611Z,59.64
2024-04-11T22:51:55.765Z,59.71
2024-04-11T22:54:23.809Z,59.64
2024-04-11T22:56:52.061Z,59.68
2024-04-11T22:59:35.875Z,59.49
2024-04-11T23:02:14.777Z,59.24
2024-04-11T23:05:07.330Z,59.84
2024-04-11T23:07:34.763Z,60.27
2024-04-11T23:10:11.106Z,60.48
2024-04-11T23:12:38.569Z,60.80
2024-04-11T23:15:12.575Z,60.35
2024-04-11T23:17:56.319Z,61.55
2024-04-11T23:20:30.082Z,62.74
2024-04-11T23:23:17.977Z,62.85
2024-04-11T23:25:51.411Z,62.85
2024-04-11T23:28:27.923Z,63.86
2024-04-11T23:30:57.585Z,62.81
2024-04-11T23:33:30.315Z,63.06
2024-04-11T23:36:06.117Z,62.42
2024-04-11T23:38:36.089Z,62.17
2024-04-11T23:41:07.785Z,62.98
2024-04-11T23:43:52.613Z,63.13
2024-04-11T23:46:32.010Z,63.65
2024-04-11T23:49:07.564Z,63.25
2024-04-11T23:51:47.390Z,63.60
2024-04-11T23:54:20.018Z,63.21
2024-04-11T23:56:48.994Z,62.85
2024-04-11T23:59:17.035Z,63.69
